sensor_id;sensor_type;location;lat;lon;timestamp;pressure;altitude;pressure_sealevel;temperature;humidity
50364;BME280;36272;59.400;17.982;2023-02-04T00:00:57;102537.47;;;-1.68;71.85
50364;BME280;36272;59.400;17.982;2023-02-04T00:06:05;102542.84;;;-1.69;71.95
50364;BME280;36272;59.400;17.982;2023-02-04T00:11:07;102564.09;;;-1.74;71.88
50364;BME280;36272;59.400;17.982;2023-02-04T00:16:08;102568.81;;;-1.79;71.88
50364;BME280;36272;59.400;17.982;2023-02-04T00:21:10;102574.34;;;-1.84;71.91
50364;BME280;36272;59.400;17.982;2023-02-04T00:26:12;102578.94;;;-1.87;72.11
50364;BME280;36272;59.400;17.982;2023-02-04T00:31:13;102586.88;;;-1.89;72.05
50364;BME280;36272;59.400;17.982;2023-02-04T00:36:15;102596.81;;;-1.94;72.19
50364;BME280;36272;59.400;17.982;2023-02-04T00:41:17;102604.88;;;-1.97;72.32
50364;BME280;36272;59.400;17.982;2023-02-04T00:46:18;102609.94;;;-1.94;72.28
50364;BME280;36272;59.400;17.982;2023-02-04T00:51:20;102622.03;;;-1.91;72.33
50364;BME280;36272;59.400;17.982;2023-02-04T00:56:22;102628.88;;;-1.89;72.35
50364;BME280;36272;59.400;17.982;2023-02-04T01:01:23;102618.19;;;-1.86;72.26
50364;BME280;36272;59.400;17.982;2023-02-04T01:06:25;102637.31;;;-1.84;72.20
50364;BME280;36272;59.400;17.982;2023-02-04T01:11:29;102629.63;;;-1.87;72.27
50364;BME280;36272;59.400;17.982;2023-02-04T01:16:31;102648.09;;;-1.88;72.06
50364;BME280;36272;59.400;17.982;2023-02-04T01:21:33;102655.41;;;-1.93;72.25
50364;BME280;36272;59.400;17.982;2023-02-04T01:26:34;102657.34;;;-1.97;72.29
50364;BME280;36272;59.400;17.982;2023-02-04T01:31:36;102666.72;;;-2.07;72.37
50364;BME280;36272;59.400;17.982;2023-02-04T01:36:38;102678.22;;;-2.10;72.36
50364;BME280;36272;59.400;17.982;2023-02-04T01:41:39;102690.75;;;-2.15;72.54
50364;BME280;36272;59.400;17.982;2023-02-04T01:46:41;102687.56;;;-2.20;72.58
50364;BME280;36272;59.400;17.982;2023-02-04T01:51:43;102707.13;;;-2.26;72.75
50364;BME280;36272;59.400;17.982;2023-02-04T01:56:45;102715.25;;;-2.31;72.94
50364;BME280;36272;59.400;17.982;2023-02-04T02:01:50;102719.75;;;-2.33;73.15
50364;BME280;36272;59.400;17.982;2023-02-04T02:06:55;102736.31;;;-2.32;73.21
50364;BME280;36272;59.400;17.982;2023-02-04T02:12:00;102744.94;;;-2.30;73.22
50364;BME280;36272;59.400;17.982;2023-02-04T02:17:03;102756.34;;;-2.31;73.38
50364;BME280;36272;59.400;17.982;2023-02-04T02:22:12;102764.22;;;-2.31;73.53
50364;BME280;36272;59.400;17.982;2023-02-04T02:27:17;102776.56;;;-2.33;73.50
50364;BME280;36272;59.400;17.982;2023-02-04T02:32:19;102781.63;;;-2.30;73.61
50364;BME280;36272;59.400;17.982;2023-02-04T02:37:21;102793.81;;;-2.29;73.79
50364;BME280;36272;59.400;17.982;2023-02-04T02:42:23;102795.34;;;-2.25;73.82
50364;BME280;36272;59.400;17.982;2023-02-04T02:47:25;102804.81;;;-2.22;73.73
50364;BME280;36272;59.400;17.982;2023-02-04T02:52:28;102828.16;;;-2.18;73.73
50364;BME280;36272;59.400;17.982;2023-02-04T02:57:30;102833.41;;;-2.18;73.76
50364;BME280;36272;59.400;17.982;2023-02-04T03:02:32;102829.09;;;-2.19;73.76
50364;BME280;36272;59.400;17.982;2023-02-04T03:07:33;102830.00;;;-2.20;73.69
50364;BME280;36272;59.400;17.982;2023-02-04T03:12:35;102834.50;;;-2.22;73.84
50364;BME280;36272;59.400;17.982;2023-02-04T03:17:38;102843.97;;;-2.19;73.79
50364;BME280;36272;59.400;17.982;2023-02-04T03:22:40;102854.56;;;-2.21;74.01
50364;BME280;36272;59.400;17.982;2023-02-04T03:27:41;102848.66;;;-2.25;73.82
50364;BME280;36272;59.400;17.982;2023-02-04T03:32:43;102857.50;;;-2.27;73.75
50364;BME280;36272;59.400;17.982;2023-02-04T03:37:45;102875.97;;;-2.29;73.88
50364;BME280;36272;59.400;17.982;2023-02-04T03:42:51;102884.16;;;-2.35;73.86
50364;BME280;36272;59.400;17.982;2023-02-04T03:47:53;102902.91;;;-2.43;73.83
50364;BME280;36272;59.400;17.982;2023-02-04T03:52:55;102902.34;;;-2.48;74.08
50364;BME280;36272;59.400;17.982;2023-02-04T03:57:56;102915.44;;;-2.48;74.14
50364;BME280;36272;59.400;17.982;2023-02-04T04:02:58;102922.69;;;-2.53;74.23
50364;BME280;36272;59.400;17.982;2023-02-04T04:08:00;102925.66;;;-2.59;74.28
50364;BME280;36272;59.400;17.982;2023-02-04T04:13:01;102923.50;;;-2.69;74.35
50364;BME280;36272;59.400;17.982;2023-02-04T04:18:03;102942.16;;;-2.75;74.21
50364;BME280;36272;59.400;17.982;2023-02-04T04:23:05;102960.97;;;-2.84;74.39
50364;BME280;36272;59.400;17.982;2023-02-04T04:28:06;102956.06;;;-2.90;74.39
50364;BME280;36272;59.400;17.982;2023-02-04T04:33:08;102969.47;;;-2.96;74.44
50364;BME280;36272;59.400;17.982;2023-02-04T04:38:10;102981.94;;;-3.02;74.60
50364;BME280;36272;59.400;17.982;2023-02-04T04:43:11;102997.66;;;-3.02;74.66
50364;BME280;36272;59.400;17.982;2023-02-04T04:48:13;103000.28;;;-3.02;74.66
50364;BME280;36272;59.400;17.982;2023-02-04T04:53:15;103007.91;;;-2.97;74.71
50364;BME280;36272;59.400;17.982;2023-02-04T04:58:17;103024.34;;;-2.93;74.66
50364;BME280;36272;59.400;17.982;2023-02-04T05:03:18;103033.88;;;-2.92;74.61
50364;BME280;36272;59.400;17.982;2023-02-04T05:08:20;103036.56;;;-2.94;74.66
50364;BME280;36272;59.400;17.982;2023-02-04T05:13:22;103047.19;;;-2.97;74.48
50364;BME280;36272;59.400;17.982;2023-02-04T05:18:25;103058.84;;;-3.03;74.56
50364;BME280;36272;59.400;17.982;2023-02-04T05:23:27;103060.97;;;-3.11;74.45
50364;BME280;36272;59.400;17.982;2023-02-04T05:28:28;103066.50;;;-3.17;74.76
50364;BME280;36272;59.400;17.982;2023-02-04T05:33:30;103087.44;;;-3.17;74.68
50364;BME280;36272;59.400;17.982;2023-02-04T05:38:32;103097.16;;;-3.19;74.73
50364;BME280;36272;59.400;17.982;2023-02-04T05:43:33;103092.84;;;-3.20;74.69
50364;BME280;36272;59.400;17.982;2023-02-04T05:48:35;103099.06;;;-3.23;74.65
50364;BME280;36272;59.400;17.982;2023-02-04T05:53:37;103102.81;;;-3.29;74.57
50364;BME280;36272;59.400;17.982;2023-02-04T05:58:38;103112.72;;;-3.35;74.68
50364;BME280;36272;59.400;17.982;2023-02-04T06:03:40;103114.84;;;-3.44;74.77
50364;BME280;36272;59.400;17.982;2023-02-04T06:08:42;103133.31;;;-3.47;74.97
50364;BME280;36272;59.400;17.982;2023-02-04T06:13:43;103132.69;;;-3.52;74.83
50364;BME280;36272;59.400;17.982;2023-02-04T06:18:45;103139.91;;;-3.57;74.88
50364;BME280;36272;59.400;17.982;2023-02-04T06:23:47;103133.81;;;-3.58;74.89
50364;BME280;36272;59.400;17.982;2023-02-04T06:28:48;103149.66;;;-3.61;74.95
50364;BME280;36272;59.400;17.982;2023-02-04T06:33:50;103155.81;;;-3.62;74.88
50364;BME280;36272;59.400;17.982;2023-02-04T06:38:52;103159.56;;;-3.67;75.15
50364;BME280;36272;59.400;17.982;2023-02-04T06:43:53;103175.25;;;-3.67;75.06
50364;BME280;36272;59.400;17.982;2023-02-04T06:48:55;103168.44;;;-3.71;74.93
50364;BME280;36272;59.400;17.982;2023-02-04T06:53:57;103180.06;;;-3.77;75.03
50364;BME280;36272;59.400;17.982;2023-02-04T06:58:59;103202.03;;;-3.81;74.92
50364;BME280;36272;59.400;17.982;2023-02-04T07:04:04;103217.06;;;-3.86;75.03
50364;BME280;36272;59.400;17.982;2023-02-04T07:09:06;103219.16;;;-3.95;75.14
50364;BME280;36272;59.400;17.982;2023-02-04T07:14:07;103235.97;;;-4.00;75.19
50364;BME280;36272;59.400;17.982;2023-02-04T07:19:30;103247.38;;;-4.03;75.24
50364;BME280;36272;59.400;17.982;2023-02-04T07:24:32;103244.09;;;-4.08;75.24
50364;BME280;36272;59.400;17.982;2023-02-04T07:29:33;103257.13;;;-4.07;75.25
50364;BME280;36272;59.400;17.982;2023-02-04T07:34:38;103275.50;;;-4.08;75.20
50364;BME280;36272;59.400;17.982;2023-02-04T07:39:39;103274.78;;;-4.12;75.42
50364;BME280;36272;59.400;17.982;2023-02-04T07:50:42;103292.88;;;-4.07;75.28
50364;BME280;36272;59.400;17.982;2023-02-04T07:55:43;103309.31;;;-4.04;75.43
50364;BME280;36272;59.400;17.982;2023-02-04T08:00:45;103310.94;;;-4.01;75.39
50364;BME280;36272;59.400;17.982;2023-02-04T08:05:47;103322.19;;;-3.99;75.37
50364;BME280;36272;59.400;17.982;2023-02-04T08:10:48;103338.66;;;-3.97;75.40
50364;BME280;36272;59.400;17.982;2023-02-04T08:15:50;103343.06;;;-3.97;75.50
50364;BME280;36272;59.400;17.982;2023-02-04T08:20:52;103339.47;;;-3.95;75.38
50364;BME280;36272;59.400;17.982;2023-02-04T08:25:54;103336.78;;;-3.93;75.44
50364;BME280;36272;59.400;17.982;2023-02-04T08:30:56;103348.81;;;-3.89;75.48
50364;BME280;36272;59.400;17.982;2023-02-04T08:35:59;103334.78;;;-3.86;75.61
50364;BME280;36272;59.400;17.982;2023-02-04T08:41:01;103352.84;;;-3.80;75.50
50364;BME280;36272;59.400;17.982;2023-02-04T08:46:02;103369.06;;;-3.72;75.39
50364;BME280;36272;59.400;17.982;2023-02-04T08:51:10;103382.00;;;-3.69;75.32
50364;BME280;36272;59.400;17.982;2023-02-04T08:56:14;103385.28;;;-3.64;75.29
50364;BME280;36272;59.400;17.982;2023-02-04T09:01:20;103391.06;;;-3.55;75.31
50364;BME280;36272;59.400;17.982;2023-02-04T09:06:22;103395.97;;;-3.48;75.39
50364;BME280;36272;59.400;17.982;2023-02-04T09:11:26;103400.00;;;-3.39;75.42
50364;BME280;36272;59.400;17.982;2023-02-04T09:16:31;103412.50;;;-3.25;75.35
50364;BME280;36272;59.400;17.982;2023-02-04T09:21:32;103415.78;;;-3.20;75.11
50364;BME280;36272;59.400;17.982;2023-02-04T09:26:34;103408.63;;;-3.16;75.25
50364;BME280;36272;59.400;17.982;2023-02-04T09:31:36;103421.38;;;-3.08;75.13
50364;BME280;36272;59.400;17.982;2023-02-04T09:36:41;103418.50;;;-3.02;75.08
50364;BME280;36272;59.400;17.982;2023-02-04T09:41:43;103420.88;;;-2.96;75.04
50364;BME280;36272;59.400;17.982;2023-02-04T09:46:49;103411.03;;;-2.91;75.04
50364;BME280;36272;59.400;17.982;2023-02-04T09:51:51;103432.53;;;-2.82;74.85
50364;BME280;36272;59.400;17.982;2023-02-04T09:56:53;103438.34;;;-2.76;74.85
50364;BME280;36272;59.400;17.982;2023-02-04T10:02:04;103438.94;;;-2.69;74.82
50364;BME280;36272;59.400;17.982;2023-02-04T10:07:16;103447.38;;;-2.62;74.82
50364;BME280;36272;59.400;17.982;2023-02-04T10:12:25;103447.94;;;-2.56;74.74
50364;BME280;36272;59.400;17.982;2023-02-04T10:17:27;103449.50;;;-2.51;74.67
50364;BME280;36272;59.400;17.982;2023-02-04T10:22:29;103450.09;;;-2.45;74.76
50364;BME280;36272;59.400;17.982;2023-02-04T10:27:31;103456.72;;;-2.37;74.62
50364;BME280;36272;59.400;17.982;2023-02-04T10:32:32;103473.63;;;-2.24;74.54
50364;BME280;36272;59.400;17.982;2023-02-04T10:37:34;103467.97;;;-2.15;74.43
50364;BME280;36272;59.400;17.982;2023-02-04T10:42:50;103476.97;;;-2.01;74.47
50364;BME280;36272;59.400;17.982;2023-02-04T10:47:54;103473.06;;;-1.92;74.27
50364;BME280;36272;59.400;17.982;2023-02-04T10:52:58;103487.31;;;-1.79;74.25
50364;BME280;36272;59.400;17.982;2023-02-04T10:58:26;103491.28;;;-1.70;74.16
50364;BME280;36272;59.400;17.982;2023-02-04T11:03:31;103495.00;;;-1.57;74.05
50364;BME280;36272;59.400;17.982;2023-02-04T11:08:35;103491.91;;;-1.47;73.83
50364;BME280;36272;59.400;17.982;2023-02-04T11:19:03;103486.16;;;-1.37;73.87
50364;BME280;36272;59.400;17.982;2023-02-04T11:34:29;103492.44;;;-1.04;73.54
50364;BME280;36272;59.400;17.982;2023-02-04T11:39:34;103491.66;;;-0.88;73.29
50364;BME280;36272;59.400;17.982;2023-02-04T11:44:37;103501.06;;;-0.33;73.14
50364;BME280;36272;59.400;17.982;2023-02-04T11:49:39;103500.25;;;0.31;72.33
50364;BME280;36272;59.400;17.982;2023-02-04T11:54:40;103511.69;;;0.78;70.84
50364;BME280;36272;59.400;17.982;2023-02-04T11:59:42;103506.97;;;1.13;70.27
50364;BME280;36272;59.400;17.982;2023-02-04T12:05:11;103504.63;;;1.38;69.46
50364;BME280;36272;59.400;17.982;2023-02-04T12:10:25;103509.81;;;1.25;69.07
50364;BME280;36272;59.400;17.982;2023-02-04T12:15:32;103514.63;;;1.18;69.15
50364;BME280;36272;59.400;17.982;2023-02-04T12:20:37;103527.63;;;1.21;69.73
50364;BME280;36272;59.400;17.982;2023-02-04T12:25:40;103537.72;;;1.58;69.58
50364;BME280;36272;59.400;17.982;2023-02-04T12:30:41;103536.78;;;2.72;68.57
50364;BME280;36272;59.400;17.982;2023-02-04T12:35:43;103534.69;;;3.69;66.72
50364;BME280;36272;59.400;17.982;2023-02-04T12:40:48;103537.22;;;4.45;66.97
50364;BME280;36272;59.400;17.982;2023-02-04T12:45:50;103547.88;;;4.81;67.07
50364;BME280;36272;59.400;17.982;2023-02-04T12:50:52;103543.13;;;4.97;67.32
50364;BME280;36272;59.400;17.982;2023-02-04T12:55:53;103558.91;;;4.99;67.71
50364;BME280;36272;59.400;17.982;2023-02-04T13:00:55;103558.94;;;4.74;68.17
50364;BME280;36272;59.400;17.982;2023-02-04T13:05:57;103563.50;;;4.48;68.42
50364;BME280;36272;59.400;17.982;2023-02-04T13:10:58;103558.66;;;4.66;68.85
50364;BME280;36272;59.400;17.982;2023-02-04T13:16:00;103577.72;;;4.96;67.87
50364;BME280;36272;59.400;17.982;2023-02-04T13:21:02;103581.47;;;4.93;67.79
50364;BME280;36272;59.400;17.982;2023-02-04T13:26:04;103587.28;;;4.50;67.53
50364;BME280;36272;59.400;17.982;2023-02-04T13:31:07;103574.91;;;3.87;68.15
50364;BME280;36272;59.400;17.982;2023-02-04T13:36:08;103592.25;;;3.26;69.17
50364;BME280;36272;59.400;17.982;2023-02-04T13:41:10;103592.16;;;2.88;70.15
50364;BME280;36272;59.400;17.982;2023-02-04T13:46:15;103580.25;;;2.53;70.23
50364;BME280;36272;59.400;17.982;2023-02-04T13:51:19;103583.47;;;2.02;72.08
50364;BME280;36272;59.400;17.982;2023-02-04T13:56:21;103584.09;;;1.62;73.19
50364;BME280;36272;59.400;17.982;2023-02-04T14:01:24;103580.94;;;1.26;72.65
50364;BME280;36272;59.400;17.982;2023-02-04T14:06:26;103569.81;;;0.91;74.43
50364;BME280;36272;59.400;17.982;2023-02-04T14:11:33;103574.41;;;0.71;74.91
50364;BME280;36272;59.400;17.982;2023-02-04T14:16:35;103569.66;;;0.46;75.01
50364;BME280;36272;59.400;17.982;2023-02-04T14:21:36;103569.59;;;0.15;75.21
50364;BME280;36272;59.400;17.982;2023-02-04T14:26:38;103576.00;;;-0.07;75.85
50364;BME280;36272;59.400;17.982;2023-02-04T14:31:40;103579.34;;;-0.21;76.48
50364;BME280;36272;59.400;17.982;2023-02-04T14:36:41;103575.75;;;-0.36;76.73
50364;BME280;36272;59.400;17.982;2023-02-04T14:41:46;103564.41;;;-0.54;76.76
50364;BME280;36272;59.400;17.982;2023-02-04T14:46:48;103563.22;;;-0.66;77.25
50364;BME280;36272;59.400;17.982;2023-02-04T14:51:50;103565.34;;;-0.90;77.23
50364;BME280;36272;59.400;17.982;2023-02-04T14:57:01;103582.63;;;-1.03;77.99
50364;BME280;36272;59.400;17.982;2023-02-04T15:02:06;103571.72;;;-1.13;77.62
50364;BME280;36272;59.400;17.982;2023-02-04T15:07:08;103583.81;;;-1.28;77.90
50364;BME280;36272;59.400;17.982;2023-02-04T15:12:10;103581.84;;;-1.42;78.51
50364;BME280;36272;59.400;17.982;2023-02-04T15:17:12;103587.53;;;-1.52;78.75
50364;BME280;36272;59.400;17.982;2023-02-04T15:22:18;103594.06;;;-1.60;78.37
50364;BME280;36272;59.400;17.982;2023-02-04T15:27:20;103599.03;;;-1.73;78.29
50364;BME280;36272;59.400;17.982;2023-02-04T15:32:22;103590.72;;;-1.83;78.27
50364;BME280;36272;59.400;17.982;2023-02-04T15:37:24;103581.69;;;-1.97;78.05
50364;BME280;36272;59.400;17.982;2023-02-04T15:42:26;103587.50;;;-2.09;77.71
50364;BME280;36272;59.400;17.982;2023-02-04T15:47:28;103587.97;;;-2.20;77.77
50364;BME280;36272;59.400;17.982;2023-02-04T15:52:30;103591.06;;;-2.31;77.75
50364;BME280;36272;59.400;17.982;2023-02-04T15:57:31;103595.06;;;-2.43;77.72
50364;BME280;36272;59.400;17.982;2023-02-04T16:02:33;103596.38;;;-2.53;77.72
50364;BME280;36272;59.400;17.982;2023-02-04T16:07:35;103601.94;;;-2.61;77.55
50364;BME280;36272;59.400;17.982;2023-02-04T16:12:36;103608.53;;;-2.73;77.50
50364;BME280;36272;59.400;17.982;2023-02-04T16:17:38;103610.75;;;-2.84;77.58
50364;BME280;36272;59.400;17.982;2023-02-04T16:22:40;103602.72;;;-3.02;77.31
50364;BME280;36272;59.400;17.982;2023-02-04T16:27:42;103585.91;;;-3.18;77.38
50364;BME280;36272;59.400;17.982;2023-02-04T16:32:49;103589.09;;;-3.32;77.49
50364;BME280;36272;59.400;17.982;2023-02-04T16:44:09;103567.69;;;-3.66;77.36
50364;BME280;36272;59.400;17.982;2023-02-04T16:49:17;103578.31;;;-3.70;77.78
50364;BME280;36272;59.400;17.982;2023-02-04T16:54:18;103583.44;;;-3.91;77.71
50364;BME280;36272;59.400;17.982;2023-02-04T16:59:21;103573.56;;;-4.07;77.64
50364;BME280;36272;59.400;17.982;2023-02-04T17:04:23;103573.81;;;-4.14;77.82
50364;BME280;36272;59.400;17.982;2023-02-04T17:09:28;103581.91;;;-4.21;77.96
50364;BME280;36272;59.400;17.982;2023-02-04T17:14:30;103586.53;;;-4.29;77.93
50364;BME280;36272;59.400;17.982;2023-02-04T17:19:32;103593.78;;;-4.37;77.98
50364;BME280;36272;59.400;17.982;2023-02-04T17:24:34;103591.66;;;-4.51;77.69
50364;BME280;36272;59.400;17.982;2023-02-04T17:30:23;103593.72;;;-4.61;77.79
50364;BME280;36272;59.400;17.982;2023-02-04T17:36:07;103597.38;;;-4.67;77.83
50364;BME280;36272;59.400;17.982;2023-02-04T17:41:37;103597.38;;;-4.67;78.14
50364;BME280;36272;59.400;17.982;2023-02-04T17:46:57;103592.25;;;-4.70;78.23
50364;BME280;36272;59.400;17.982;2023-02-04T17:52:05;103601.69;;;-4.64;78.38
50364;BME280;36272;59.400;17.982;2023-02-04T17:57:18;103593.03;;;-4.66;78.36
50364;BME280;36272;59.400;17.982;2023-02-04T18:02:26;103597.28;;;-4.64;78.59
50364;BME280;36272;59.400;17.982;2023-02-04T18:14:19;103595.50;;;-4.63;78.43
50364;BME280;36272;59.400;17.982;2023-02-04T18:38:43;103590.41;;;-4.93;78.73
50364;BME280;36272;59.400;17.982;2023-02-04T18:43:49;103596.41;;;-4.89;78.83
50364;BME280;36272;59.400;17.982;2023-02-04T18:54:51;103601.84;;;-4.97;78.71
50364;BME280;36272;59.400;17.982;2023-02-04T19:00:18;103591.69;;;-5.07;78.70
50364;BME280;36272;59.400;17.982;2023-02-04T19:11:48;103583.31;;;-5.16;78.66
50364;BME280;36272;59.400;17.982;2023-02-04T19:17:01;103575.81;;;-5.27;78.63
50364;BME280;36272;59.400;17.982;2023-02-04T19:27:33;103588.53;;;-5.45;78.49
50364;BME280;36272;59.400;17.982;2023-02-04T19:32:43;103586.22;;;-5.54;78.39
50364;BME280;36272;59.400;17.982;2023-02-04T19:37:51;103582.06;;;-5.61;78.52
50364;BME280;36272;59.400;17.982;2023-02-04T19:43:03;103590.25;;;-5.74;78.38
50364;BME280;36272;59.400;17.982;2023-02-04T19:48:20;103588.78;;;-5.83;78.40
50364;BME280;36272;59.400;17.982;2023-02-04T19:53:27;103589.88;;;-5.91;78.37
50364;BME280;36272;59.400;17.982;2023-02-04T19:58:40;103605.81;;;-6.01;78.26
50364;BME280;36272;59.400;17.982;2023-02-04T20:03:49;103603.38;;;-6.07;78.36
50364;BME280;36272;59.400;17.982;2023-02-04T20:09:08;103607.94;;;-6.15;78.35
50364;BME280;36272;59.400;17.982;2023-02-04T20:19:34;103598.88;;;-6.35;78.21
50364;BME280;36272;59.400;17.982;2023-02-04T20:24:49;103596.47;;;-6.41;78.69
50364;BME280;36272;59.400;17.982;2023-02-04T20:30:16;103605.13;;;-6.40;78.55
50364;BME280;36272;59.400;17.982;2023-02-04T20:40:32;103590.00;;;-6.26;79.07
50364;BME280;36272;59.400;17.982;2023-02-04T20:45:55;103577.59;;;-6.18;78.78
50364;BME280;36272;59.400;17.982;2023-02-04T20:51:04;103582.84;;;-6.19;78.48
50364;BME280;36272;59.400;17.982;2023-02-04T21:01:34;103567.38;;;-6.25;79.08
50364;BME280;36272;59.400;17.982;2023-02-04T21:06:39;103576.81;;;-6.20;78.98
50364;BME280;36272;59.400;17.982;2023-02-04T21:11:40;103565.41;;;-6.17;78.79
50364;BME280;36272;59.400;17.982;2023-02-04T21:16:42;103559.47;;;-6.22;78.76
50364;BME280;36272;59.400;17.982;2023-02-04T21:21:47;103575.44;;;-6.35;78.56
50364;BME280;36272;59.400;17.982;2023-02-04T21:26:49;103560.97;;;-6.45;78.55
50364;BME280;36272;59.400;17.982;2023-02-04T21:31:50;103561.16;;;-6.53;78.50
50364;BME280;36272;59.400;17.982;2023-02-04T21:41:56;103537.19;;;-6.66;78.70
50364;BME280;36272;59.400;17.982;2023-02-04T21:47:10;103530.47;;;-6.75;78.44
50364;BME280;36272;59.400;17.982;2023-02-04T21:52:12;103534.03;;;-6.79;78.58
50364;BME280;36272;59.400;17.982;2023-02-04T21:57:15;103528.91;;;-6.82;78.52
50364;BME280;36272;59.400;17.982;2023-02-04T22:02:19;103523.78;;;-6.85;78.33
50364;BME280;36272;59.400;17.982;2023-02-04T22:07:21;103510.97;;;-6.93;78.39
50364;BME280;36272;59.400;17.982;2023-02-04T22:12:23;103497.28;;;-7.01;78.39
50364;BME280;36272;59.400;17.982;2023-02-04T22:17:24;103497.34;;;-7.04;78.55
50364;BME280;36272;59.400;17.982;2023-02-04T22:22:26;103487.84;;;-7.05;78.49
50364;BME280;36272;59.400;17.982;2023-02-04T22:27:28;103480.03;;;-7.05;78.41
50364;BME280;36272;59.400;17.982;2023-02-04T22:32:30;103480.09;;;-7.08;78.51
50364;BME280;36272;59.400;17.982;2023-02-04T22:37:31;103469.78;;;-7.11;78.43
50364;BME280;36272;59.400;17.982;2023-02-04T22:42:33;103459.44;;;-7.14;78.42
50364;BME280;36272;59.400;17.982;2023-02-04T22:47:35;103449.19;;;-7.21;78.28
50364;BME280;36272;59.400;17.982;2023-02-04T22:52:36;103443.16;;;-7.23;78.19
50364;BME280;36272;59.400;17.982;2023-02-04T22:57:41;103442.34;;;-7.25;78.26
50364;BME280;36272;59.400;17.982;2023-02-04T23:02:42;103445.84;;;-7.26;78.25
50364;BME280;36272;59.400;17.982;2023-02-04T23:07:44;103451.91;;;-7.25;78.37
50364;BME280;36272;59.400;17.982;2023-02-04T23:12:46;103451.91;;;-7.25;78.44
50364;BME280;36272;59.400;17.982;2023-02-04T23:17:48;103453.66;;;-7.26;78.36
50364;BME280;36272;59.400;17.982;2023-02-04T23:22:49;103458.94;;;-7.29;78.20
50364;BME280;36272;59.400;17.982;2023-02-04T23:27:51;103447.53;;;-7.25;78.64
50364;BME280;36272;59.400;17.982;2023-02-04T23:32:53;103443.09;;;-7.20;78.71
50364;BME280;36272;59.400;17.982;2023-02-04T23:37:54;103438.53;;;-7.11;78.64
50364;BME280;36272;59.400;17.982;2023-02-04T23:42:59;103429.81;;;-7.09;78.34
50364;BME280;36272;59.400;17.982;2023-02-04T23:48:01;103420.31;;;-7.10;78.39
50364;BME280;36272;59.400;17.982;2023-02-04T23:53:02;103422.00;;;-7.09;78.48
50364;BME280;36272;59.400;17.982;2023-02-04T23:58:04;103406.22;;;-7.03;78.66
